createdAt,value
2019-03-28T00:01:27.243Z,7.23
2019-03-28T00:03:57.736Z,7.22
2019-03-28T00:06:28.272Z,7.22
2019-03-28T00:08:59.268Z,7.27
2019-03-28T00:11:29.663Z,7.27
2019-03-28T00:14:00.508Z,7.27
2019-03-28T00:16:31.100Z,7.25
2019-03-28T00:19:02.214Z,7.22
2019-03-28T00:21:33.028Z,7.20
2019-03-28T00:24:05.569Z,7.17
2019-03-28T00:26:36.145Z,7.16
2019-03-28T00:29:06.618Z,7.16
2019-03-28T00:31:37.145Z,7.14
2019-03-28T00:34:07.780Z,7.11
2019-03-28T00:36:38.620Z,7.09
2019-03-28T00:39:09.549Z,7.09
2019-03-28T00:41:40.380Z,7.09
2019-03-28T00:44:11.312Z,7.08
2019-03-28T00:46:41.990Z,7.07
2019-03-28T00:49:12.942Z,7.07
2019-03-28T00:51:43.606Z,7.05
2019-03-28T00:54:14.062Z,7.05
2019-03-28T00:56:47.346Z,7.05
2019-03-28T00:59:18.206Z,7.06
2019-03-28T01:01:48.654Z,7.05
2019-03-28T01:04:19.313Z,7.05
2019-03-28T01:06:50.113Z,7.05
2019-03-28T01:09:20.705Z,7.07
2019-03-28T01:11:51.237Z,7.08
2019-03-28T01:14:21.828Z,7.07
2019-03-28T01:16:53.426Z,7.10
2019-03-28T01:19:24.202Z,7.11
2019-03-28T01:21:55.011Z,7.12
2019-03-28T01:24:25.849Z,7.13
2019-03-28T01:26:57.407Z,7.13
2019-03-28T01:29:28.817Z,7.13
2019-03-28T01:31:59.379Z,7.13
2019-03-28T01:34:30.118Z,7.15
2019-03-28T01:37:00.943Z,7.15
2019-03-28T01:39:31.776Z,7.15
2019-03-28T01:42:02.301Z,7.16
2019-03-28T01:44:33.318Z,7.16
2019-03-28T01:47:04.419Z,7.18
2019-03-28T01:49:35.046Z,7.19
2019-03-28T01:52:05.754Z,7.19
2019-03-28T01:54:36.135Z,7.18
2019-03-28T01:57:11.280Z,7.17
2019-03-28T01:59:39.782Z,7.17
2019-03-28T02:02:11.919Z,7.15
2019-03-28T02:04:42.482Z,7.12
2019-03-28T02:07:12.971Z,7.11
2019-03-28T02:09:43.590Z,7.10
2019-03-28T02:12:14.769Z,7.09
2019-03-28T02:14:45.289Z,7.11
2019-03-28T02:17:16.004Z,7.15
2019-03-28T02:19:46.516Z,7.14
2019-03-28T02:22:17.233Z,7.17
2019-03-28T02:24:47.878Z,7.19
2019-03-28T02:27:23.771Z,7.21
2019-03-28T02:29:50.856Z,7.20
2019-03-28T02:32:21.340Z,7.19
2019-03-28T02:34:52.044Z,7.18
2019-03-28T02:37:22.536Z,7.18
2019-03-28T02:39:53.277Z,7.15
2019-03-28T02:42:23.610Z,7.13
2019-03-28T02:44:54.029Z,7.11
2019-03-28T02:47:24.660Z,7.12
2019-03-28T02:49:55.382Z,7.11
2019-03-28T02:52:25.816Z,7.11
2019-03-28T02:54:56.319Z,7.10
2019-03-28T02:57:40.254Z,7.09
2019-03-28T03:00:00.156Z,7.05
2019-03-28T03:02:30.891Z,7.02
2019-03-28T03:05:01.532Z,6.99
2019-03-28T03:07:32.098Z,6.95
2019-03-28T03:10:03.294Z,6.95
2019-03-28T03:12:33.839Z,6.93
2019-03-28T03:15:06.158Z,6.96
2019-03-28T03:17:37.629Z,6.98
2019-03-28T03:20:08.150Z,6.98
2019-03-28T03:22:39.679Z,7.00
2019-03-28T03:25:10.144Z,7.02
2019-03-28T03:27:56.967Z,7.04
2019-03-28T03:30:13.604Z,7.09
2019-03-28T03:32:44.117Z,7.14
2019-03-28T03:35:14.693Z,7.21
2019-03-28T03:37:45.499Z,7.22
2019-03-28T03:40:16.159Z,7.24
2019-03-28T03:42:48.525Z,7.29
2019-03-28T03:45:19.011Z,7.28
2019-03-28T03:47:49.700Z,7.27
2019-03-28T03:50:27.917Z,7.29
2019-03-28T03:52:58.313Z,7.31
2019-03-28T03:55:29.404Z,7.38
2019-03-28T03:58:14.595Z,7.44
2019-03-28T04:00:35.176Z,7.41
2019-03-28T04:03:05.861Z,7.44
2019-03-28T04:05:36.383Z,7.45
2019-03-28T04:08:07.434Z,7.53
2019-03-28T04:10:38.237Z,7.47
2019-03-28T04:13:10.698Z,7.53
2019-03-28T04:15:41.717Z,7.49
2019-03-28T04:18:12.314Z,7.50
2019-03-28T04:20:43.001Z,7.47
2019-03-28T04:23:13.671Z,7.49
2019-03-28T04:25:44.583Z,7.52
2019-03-28T04:28:30.798Z,7.50
2019-03-28T04:30:47.956Z,7.50
2019-03-28T04:33:19.523Z,7.48
2019-03-28T04:35:50.504Z,7.52
2019-03-28T04:38:21.042Z,7.52
2019-03-28T04:40:51.979Z,7.50
2019-03-28T04:43:22.674Z,7.49
2019-03-28T04:45:53.595Z,7.46
2019-03-28T04:48:24.075Z,7.45
2019-03-28T04:50:54.916Z,7.45
2019-03-28T04:53:25.876Z,7.43
2019-03-28T04:55:56.433Z,7.37
2019-03-28T04:58:28.440Z,7.40
2019-03-28T05:00:59.996Z,7.40
2019-03-28T05:03:30.647Z,7.43
2019-03-28T05:06:01.526Z,7.40
2019-03-28T05:08:32.099Z,7.44
2019-03-28T05:11:05.506Z,7.42
2019-03-28T05:13:36.108Z,7.46
2019-03-28T05:16:07.067Z,7.49
2019-03-28T05:18:37.740Z,7.51
2019-03-28T05:21:09.549Z,7.54
2019-03-28T05:23:40.550Z,7.64
2019-03-28T05:26:11.579Z,7.68
2019-03-28T05:28:42.044Z,7.71
2019-03-28T05:31:12.502Z,7.72
2019-03-28T05:33:43.375Z,7.76
2019-03-28T05:36:14.291Z,7.84
2019-03-28T05:38:46.574Z,7.87
2019-03-28T05:41:17.622Z,7.98
2019-03-28T05:43:48.472Z,8.01
2019-03-28T05:46:19.303Z,8.08
2019-03-28T05:48:49.775Z,8.09
2019-03-28T05:51:20.478Z,8.08
2019-03-28T05:53:50.776Z,8.08
2019-03-28T05:56:22.436Z,8.18
2019-03-28T05:58:53.025Z,8.17
2019-03-28T06:01:24.946Z,8.32
2019-03-28T06:03:55.889Z,8.40
2019-03-28T06:06:26.689Z,8.49
2019-03-28T06:08:57.440Z,8.54
2019-03-28T06:11:28.608Z,8.64
2019-03-28T06:14:01.045Z,8.65
2019-03-28T06:16:32.036Z,8.73
2019-03-28T06:19:02.884Z,8.77
2019-03-28T06:21:33.620Z,8.83
2019-03-28T06:24:04.253Z,8.82
2019-03-28T06:26:35.152Z,8.88
2019-03-28T06:29:08.649Z,8.82
2019-03-28T06:31:38.859Z,8.76
2019-03-28T06:34:09.571Z,8.79
2019-03-28T06:36:40.507Z,8.88
2019-03-28T06:39:11.335Z,8.84
2019-03-28T06:41:44.356Z,9.09
2019-03-28T06:44:14.814Z,9.28
2019-03-28T06:46:45.501Z,9.21
2019-03-28T06:49:16.009Z,9.44
2019-03-28T06:51:48.383Z,9.28
2019-03-28T06:54:19.147Z,9.08
2019-03-28T06:56:49.973Z,9.09
2019-03-28T06:59:21.839Z,9.02
2019-03-28T07:01:52.669Z,8.94
2019-03-28T07:04:23.707Z,9.09
2019-03-28T07:06:54.508Z,9.18
2019-03-28T07:09:25.848Z,9.18
2019-03-28T07:11:56.202Z,9.26
2019-03-28T07:14:26.902Z,9.07
2019-03-28T07:16:57.532Z,9.05
2019-03-28T07:19:28.387Z,9.14
2019-03-28T07:21:59.325Z,9.12
2019-03-28T07:24:29.947Z,9.09
2019-03-28T07:27:01.167Z,9.34
2019-03-28T07:29:32.459Z,9.33
2019-03-28T07:32:03.595Z,9.42
2019-03-28T07:34:34.519Z,9.25
2019-03-28T07:37:04.926Z,9.25
2019-03-28T07:39:35.324Z,9.50
2019-03-28T07:42:06.110Z,9.49
2019-03-28T07:44:37.660Z,9.50
2019-03-28T07:47:08.328Z,9.63
2019-03-28T07:49:38.699Z,9.73
2019-03-28T07:52:10.364Z,9.85
2019-03-28T07:54:40.799Z,9.98
2019-03-28T07:57:11.493Z,9.91
2019-03-28T07:59:44.210Z,10.30
2019-03-28T08:02:16.789Z,10.45
2019-03-28T08:04:47.235Z,10.16
2019-03-28T08:07:17.857Z,10.17
2019-03-28T08:09:48.325Z,10.57
2019-03-28T08:12:22.867Z,10.62
2019-03-28T08:14:51.009Z,10.63
2019-03-28T08:17:23.015Z,11.02
2019-03-28T08:19:53.529Z,11.29
2019-03-28T08:22:24.888Z,12.92
2019-03-28T08:24:55.660Z,12.65
2019-03-28T08:27:26.539Z,12.91
2019-03-28T08:29:57.927Z,15.90
2019-03-28T08:32:30.695Z,16.36
2019-03-28T08:35:01.313Z,17.61
2019-03-28T08:37:35.991Z,13.18
2019-03-28T08:40:08.114Z,13.94
2019-03-28T08:42:39.044Z,13.82
2019-03-28T08:45:09.704Z,13.20
2019-03-28T08:47:40.471Z,12.07
2019-03-28T08:50:11.217Z,12.00
2019-03-28T08:52:41.868Z,11.48
2019-03-28T08:55:14.203Z,11.50
2019-03-28T08:57:45.136Z,11.76
2019-03-28T09:00:17.369Z,13.06
2019-03-28T09:02:49.373Z,15.23
2019-03-28T09:05:20.139Z,15.25
2019-03-28T09:07:50.936Z,14.50
2019-03-28T09:10:21.420Z,13.17
2019-03-28T09:12:51.894Z,12.62
2019-03-28T09:15:23.265Z,11.75
2019-03-28T09:17:53.919Z,11.75
2019-03-28T09:20:24.496Z,11.75
2019-03-28T09:22:55.363Z,11.85
2019-03-28T09:25:25.896Z,11.77
2019-03-28T09:27:56.505Z,12.91
2019-03-28T09:30:46.804Z,15.05
2019-03-28T09:33:05.797Z,15.85
2019-03-28T09:35:36.427Z,15.11
2019-03-28T09:38:06.780Z,15.64
2019-03-28T09:40:37.354Z,15.87
2019-03-28T09:43:08.277Z,13.57
2019-03-28T09:45:38.894Z,13.31
2019-03-28T09:48:11.650Z,13.38
2019-03-28T09:50:41.705Z,12.67
2019-03-28T09:53:12.524Z,12.22
2019-03-28T09:55:43.055Z,11.83
2019-03-28T09:58:13.951Z,12.02
2019-03-28T10:00:45.867Z,12.09
2019-03-28T10:03:16.534Z,11.79
2019-03-28T10:05:47.165Z,11.79
2019-03-28T10:08:18.827Z,12.28
2019-03-28T10:10:49.460Z,12.12
2019-03-28T10:13:19.945Z,12.46
2019-03-28T10:15:50.605Z,12.44
2019-03-28T10:18:21.317Z,12.78
2019-03-28T10:20:51.913Z,12.89
2019-03-28T10:23:22.855Z,12.87
2019-03-28T10:25:53.568Z,13.08
2019-03-28T10:28:24.654Z,13.10
2019-03-28T10:30:56.310Z,12.69
2019-03-28T10:33:27.028Z,12.80
2019-03-28T10:35:57.803Z,13.11
2019-03-28T10:38:28.505Z,13.22
2019-03-28T10:41:00.147Z,12.60
2019-03-28T10:43:31.011Z,12.17
2019-03-28T10:46:02.495Z,12.15
2019-03-28T10:48:33.265Z,12.38
2019-03-28T10:51:03.657Z,12.44
2019-03-28T10:53:34.544Z,12.30
2019-03-28T10:56:05.158Z,12.48
2019-03-28T10:58:37.505Z,13.07
2019-03-28T11:01:09.154Z,12.89
2019-03-28T11:03:39.927Z,13.34
2019-03-28T11:06:10.434Z,13.38
2019-03-28T11:08:42.648Z,13.96
2019-03-28T11:11:14.541Z,13.82
2019-03-28T11:13:45.990Z,13.13
2019-03-28T11:16:16.625Z,12.67
2019-03-28T11:18:47.037Z,12.82
2019-03-28T11:21:17.635Z,12.82
2019-03-28T11:23:48.123Z,13.17
2019-03-28T11:26:19.884Z,13.12
2019-03-28T11:28:50.703Z,13.22
2019-03-28T11:31:21.429Z,13.49
2019-03-28T11:33:51.909Z,13.49
2019-03-28T11:36:22.597Z,13.59
2019-03-28T11:38:53.144Z,13.93
2019-03-28T11:41:23.950Z,14.33
2019-03-28T11:43:54.559Z,13.84
2019-03-28T11:46:25.041Z,14.24
2019-03-28T11:48:55.520Z,14.60
2019-03-28T11:51:27.517Z,14.84
2019-03-28T11:53:57.935Z,15.07
2019-03-28T11:56:29.781Z,15.20
2019-03-28T11:59:00.224Z,15.59
2019-03-28T12:01:32.387Z,15.11
2019-03-28T12:04:02.852Z,14.90
2019-03-28T12:06:34.318Z,15.23
2019-03-28T12:09:07.388Z,15.24
2019-03-28T12:11:38.115Z,13.95
2019-03-28T12:14:08.645Z,14.29
2019-03-28T12:16:40.616Z,14.02
2019-03-28T12:19:11.221Z,14.03
2019-03-28T12:21:41.782Z,13.75
2019-03-28T12:24:12.676Z,13.93
2019-03-28T12:26:43.490Z,14.06
2019-03-28T12:29:13.999Z,14.10
2019-03-28T12:31:46.169Z,13.78
2019-03-28T12:34:16.661Z,13.80
2019-03-28T12:36:47.509Z,13.77
2019-03-28T12:39:18.095Z,13.90
2019-03-28T12:41:48.786Z,13.82
2019-03-28T12:44:19.367Z,13.34
2019-03-28T12:46:51.596Z,13.28
2019-03-28T12:49:38.955Z,13.08
2019-03-28T12:52:09.407Z,13.42
2019-03-28T12:54:43.997Z,13.49
2019-03-28T12:57:14.542Z,13.19
2019-03-28T12:59:45.802Z,13.45
2019-03-28T13:02:28.323Z,13.77
2019-03-28T13:04:49.745Z,14.09
2019-03-28T13:07:20.672Z,14.26
2019-03-28T13:09:51.281Z,14.55
2019-03-28T13:12:22.911Z,14.58
2019-03-28T13:14:53.812Z,14.05
2019-03-28T13:17:24.336Z,13.55
2019-03-28T13:19:54.851Z,14.00
2019-03-28T13:22:25.301Z,14.34
2019-03-28T13:24:56.345Z,14.56
2019-03-28T13:27:26.943Z,14.78
2019-03-28T13:29:57.700Z,15.03
2019-03-28T13:32:41.043Z,15.07
2019-03-28T13:35:00.822Z,15.01
2019-03-28T13:37:31.864Z,15.08
2019-03-28T13:40:02.685Z,15.05
2019-03-28T13:42:33.317Z,14.84
2019-03-28T13:45:07.914Z,14.89
2019-03-28T13:47:38.510Z,14.26
2019-03-28T13:50:09.843Z,14.80
2019-03-28T13:52:40.596Z,14.76
2019-03-28T13:55:11.234Z,14.79
2019-03-28T13:57:43.413Z,14.89
2019-03-28T14:00:15.475Z,14.92
2019-03-28T14:02:57.166Z,14.88
2019-03-28T14:05:18.526Z,15.10
2019-03-28T14:07:49.166Z,15.29
2019-03-28T14:10:21.760Z,15.32
2019-03-28T14:12:52.188Z,15.45
2019-03-28T14:15:22.849Z,15.38
2019-03-28T14:17:54.154Z,14.89
2019-03-28T14:20:24.650Z,14.85
2019-03-28T14:22:56.942Z,14.83
2019-03-28T14:25:28.029Z,14.33
2019-03-28T14:27:58.902Z,13.71
2019-03-28T14:30:30.008Z,13.73
2019-03-28T14:33:11.294Z,13.99
2019-03-28T14:35:33.487Z,14.08
2019-03-28T14:38:04.067Z,14.13
2019-03-28T14:40:34.546Z,13.70
2019-03-28T14:43:05.397Z,13.56
2019-03-28T14:45:35.969Z,13.35
2019-03-28T14:48:07.101Z,13.36
2019-03-28T14:50:39.193Z,13.14
2019-03-28T14:53:09.822Z,13.14
2019-03-28T14:55:40.381Z,13.29
2019-03-28T14:58:11.084Z,13.44
2019-03-28T15:00:49.036Z,13.44
2019-03-28T15:03:26.111Z,13.74
2019-03-28T15:05:52.305Z,13.54
2019-03-28T15:08:23.094Z,13.63
2019-03-28T15:10:53.609Z,13.63
2019-03-28T15:13:24.327Z,13.32
2019-03-28T15:15:55.732Z,13.43
2019-03-28T15:18:26.195Z,13.43
2019-03-28T15:20:57.212Z,13.38
2019-03-28T15:23:29.101Z,13.51
2019-03-28T15:26:00.200Z,13.28
2019-03-28T15:28:32.368Z,13.26
2019-03-28T15:31:02.972Z,13.33
2019-03-28T15:33:39.738Z,13.24
2019-03-28T15:36:07.884Z,13.03
2019-03-28T15:38:39.918Z,13.07
2019-03-28T15:41:11.883Z,13.00
2019-03-28T15:43:42.573Z,13.08
2019-03-28T15:46:13.181Z,13.15
2019-03-28T15:48:44.123Z,13.24
2019-03-28T15:51:14.727Z,13.25
2019-03-28T15:53:48.061Z,13.14
2019-03-28T15:56:20.440Z,13.20
2019-03-28T15:58:52.812Z,13.15
2019-03-28T16:01:23.557Z,13.17
2019-03-28T16:03:54.286Z,12.95
2019-03-28T16:06:28.108Z,12.86
2019-03-28T16:09:00.370Z,12.98
2019-03-28T16:11:31.825Z,13.10
2019-03-28T16:14:03.316Z,13.12
2019-03-28T16:16:34.264Z,13.07
2019-03-28T16:19:05.736Z,13.07
2019-03-28T16:21:36.639Z,12.96
2019-03-28T16:24:08.288Z,13.05
2019-03-28T16:26:40.358Z,13.03
2019-03-28T16:29:10.869Z,12.94
2019-03-28T16:31:41.318Z,12.84
2019-03-28T16:34:11.866Z,12.68
2019-03-28T16:36:47.051Z,12.53
2019-03-28T16:39:17.738Z,12.45
2019-03-28T16:41:49.107Z,12.37
2019-03-28T16:44:20.207Z,12.23
2019-03-28T16:46:50.690Z,12.10
2019-03-28T16:49:21.512Z,11.99
2019-03-28T16:51:52.029Z,11.93
2019-03-28T16:54:22.860Z,11.75
2019-03-28T16:56:53.754Z,11.59
2019-03-28T16:59:25.482Z,11.40
2019-03-28T17:01:56.404Z,11.23
2019-03-28T17:04:27.920Z,11.15
2019-03-28T17:06:59.678Z,11.14
2019-03-28T17:09:37.463Z,11.03
2019-03-28T17:12:07.047Z,11.01
2019-03-28T17:14:37.714Z,10.94
2019-03-28T17:17:09.006Z,10.96
2019-03-28T17:19:42.623Z,10.90
2019-03-28T17:22:11.640Z,10.83
2019-03-28T17:24:42.197Z,10.78
2019-03-28T17:27:12.723Z,10.75
2019-03-28T17:29:43.433Z,10.51
2019-03-28T17:32:14.945Z,10.39
2019-03-28T17:34:47.277Z,10.29
2019-03-28T17:37:17.783Z,10.31
2019-03-28T17:39:48.441Z,10.22
2019-03-28T17:42:19.046Z,10.28
2019-03-28T17:44:49.525Z,10.29
2019-03-28T17:47:20.206Z,10.31
2019-03-28T17:49:51.759Z,10.21
2019-03-28T17:52:22.557Z,10.19
2019-03-28T17:54:54.690Z,10.15
2019-03-28T17:57:25.608Z,10.09
2019-03-28T17:59:56.250Z,10.16
2019-03-28T18:02:26.995Z,10.18
2019-03-28T18:05:09.233Z,10.18
2019-03-28T18:07:31.052Z,10.15
2019-03-28T18:10:01.543Z,10.14
2019-03-28T18:12:33.100Z,10.09
2019-03-28T18:15:03.950Z,9.98
2019-03-28T18:17:34.740Z,9.93
2019-03-28T18:20:08.314Z,9.86
2019-03-28T18:22:39.453Z,9.76
2019-03-28T18:25:10.264Z,9.68
2019-03-28T18:27:41.321Z,9.64
2019-03-28T18:30:12.159Z,9.56
2019-03-28T18:32:42.879Z,9.51
2019-03-28T18:35:13.516Z,9.51
2019-03-28T18:37:44.752Z,9.50
2019-03-28T18:40:15.295Z,9.29
2019-03-28T18:42:46.635Z,9.12
2019-03-28T18:45:18.051Z,8.98
2019-03-28T18:47:49.423Z,8.91
2019-03-28T18:50:20.073Z,8.67
2019-03-28T18:52:52.777Z,8.53
2019-03-28T18:55:23.839Z,8.60
2019-03-28T18:57:54.459Z,8.42
2019-03-28T19:00:25.925Z,8.33
2019-03-28T19:02:57.036Z,8.27
2019-03-28T19:05:27.908Z,8.16
2019-03-28T19:08:00.260Z,8.12
2019-03-28T19:10:31.669Z,8.02
2019-03-28T19:13:04.744Z,7.99
2019-03-28T19:15:35.093Z,8.08
2019-03-28T19:18:07.685Z,8.07
2019-03-28T19:20:38.690Z,8.04
2019-03-28T19:23:10.488Z,8.00
2019-03-28T19:25:46.621Z,7.98
2019-03-28T19:28:28.236Z,7.99
2019-03-28T19:30:48.914Z,7.92
2019-03-28T19:33:21.516Z,7.95
2019-03-28T19:35:53.339Z,7.95
2019-03-28T19:38:24.343Z,7.99
2019-03-28T19:40:55.024Z,7.82
2019-03-28T19:43:25.522Z,7.78
2019-03-28T19:45:56.319Z,7.86
2019-03-28T19:48:28.026Z,7.91
2019-03-28T19:50:58.934Z,7.90
2019-03-28T19:53:31.386Z,7.84
2019-03-28T19:56:04.027Z,7.71
2019-03-28T19:58:35.285Z,7.51
2019-03-28T20:01:06.556Z,7.36
2019-03-28T20:03:37.471Z,7.25
2019-03-28T20:06:21.291Z,7.18
2019-03-28T20:08:41.405Z,7.08
2019-03-28T20:11:13.410Z,6.99
2019-03-28T20:13:44.279Z,7.00
2019-03-28T20:16:15.043Z,6.85
2019-03-28T20:18:45.793Z,6.72
2019-03-28T20:21:16.868Z,6.61
2019-03-28T20:23:48.874Z,6.66
2019-03-28T20:26:21.707Z,6.56
2019-03-28T20:28:52.341Z,6.39
2019-03-28T20:31:22.917Z,6.34
2019-03-28T20:33:53.678Z,6.30
2019-03-28T20:36:37.660Z,6.31
2019-03-28T20:39:04.288Z,6.16
2019-03-28T20:41:33.331Z,6.17
2019-03-28T20:44:04.174Z,6.16
2019-03-28T20:46:35.248Z,6.26
2019-03-28T20:49:06.404Z,6.29
2019-03-28T20:51:39.359Z,6.30
2019-03-28T20:54:12.212Z,6.21
2019-03-28T20:56:43.234Z,6.22
2019-03-28T20:59:14.487Z,6.26
2019-03-28T21:01:45.717Z,6.31
2019-03-28T21:04:30.320Z,6.44
2019-03-28T21:06:50.177Z,6.44
2019-03-28T21:09:20.998Z,6.54
2019-03-28T21:11:52.963Z,6.59
2019-03-28T21:14:28.036Z,6.68
2019-03-28T21:17:00.599Z,6.73
2019-03-28T21:19:31.635Z,6.78
2019-03-28T21:22:05.725Z,6.85
2019-03-28T21:24:35.097Z,6.93
2019-03-28T21:27:08.459Z,6.89
2019-03-28T21:29:48.762Z,6.92
2019-03-28T21:32:16.474Z,6.96
2019-03-28T21:34:47.767Z,7.07
2019-03-28T21:37:18.857Z,7.10
2019-03-28T21:39:49.654Z,7.08
2019-03-28T21:42:20.250Z,7.09
2019-03-28T21:44:52.673Z,7.01
2019-03-28T21:47:23.361Z,7.01
2019-03-28T21:49:54.007Z,7.11
2019-03-28T21:52:24.680Z,7.21
2019-03-28T21:54:55.883Z,7.21
2019-03-28T21:57:26.814Z,7.48
2019-03-28T21:59:57.647Z,7.68
2019-03-28T22:02:28.379Z,7.90
2019-03-28T22:05:01.532Z,8.15
2019-03-28T22:07:32.399Z,8.43
2019-03-28T22:10:03.407Z,8.34
2019-03-28T22:12:34.282Z,8.48
2019-03-28T22:15:06.554Z,8.69
2019-03-28T22:17:37.699Z,8.69
2019-03-28T22:20:08.299Z,8.65
2019-03-28T22:22:38.890Z,8.66
2019-03-28T22:25:09.748Z,8.72
2019-03-28T22:27:40.242Z,8.59
2019-03-28T22:30:11.367Z,8.41
2019-03-28T22:32:42.266Z,8.25
2019-03-28T22:35:13.104Z,8.12
2019-03-28T22:37:44.778Z,8.04
2019-03-28T22:40:17.252Z,8.07
2019-03-28T22:42:47.699Z,8.13
2019-03-28T22:45:18.397Z,8.14
2019-03-28T22:47:48.886Z,8.13
2019-03-28T22:50:21.255Z,8.12
2019-03-28T22:52:51.943Z,8.10
2019-03-28T22:55:22.484Z,8.12
2019-03-28T22:57:54.094Z,8.13
2019-03-28T23:00:26.759Z,8.16
2019-03-28T23:02:59.046Z,8.21
2019-03-28T23:05:30.867Z,8.32
2019-03-28T23:08:01.568Z,8.50
2019-03-28T23:10:32.151Z,8.47
2019-03-28T23:13:02.652Z,8.53
2019-03-28T23:15:33.301Z,8.50
2019-03-28T23:18:04.690Z,8.58
2019-03-28T23:20:36.183Z,8.57
2019-03-28T23:23:06.695Z,8.59
2019-03-28T23:25:37.252Z,8.62
2019-03-28T23:28:08.084Z,8.65
2019-03-28T23:30:38.742Z,8.67
2019-03-28T23:33:09.465Z,8.64
2019-03-28T23:35:40.996Z,8.63
2019-03-28T23:38:11.763Z,8.62
2019-03-28T23:40:42.526Z,8.60
2019-03-28T23:43:13.200Z,8.60
2019-03-28T23:45:44.000Z,8.61
2019-03-28T23:48:14.674Z,8.64
2019-03-28T23:50:45.192Z,8.66
2019-03-28T23:53:15.725Z,8.67
2019-03-28T23:55:46.629Z,8.68
2019-03-28T23:58:17.305Z,8.74
